sensor_id;sensor_type;location;lat;lon;timestamp;P1;durP1;ratioP1;P2;durP2;ratioP2
75297;SDS011;63896;45.990;18.688;2024-01-16T00:01:35;5.10;;;2.40;;
75297;SDS011;63896;45.990;18.688;2024-01-16T00:04:38;7.50;;;3.25;;
75297;SDS011;63896;45.990;18.688;2024-01-16T00:07:43;10.50;;;4.20;;
75297;SDS011;63896;45.990;18.688;2024-01-16T00:10:46;10.10;;;3.80;;
75297;SDS011;63896;45.990;18.688;2024-01-16T00:13:49;8.27;;;3.70;;
75297;SDS011;63896;45.990;18.688;2024-01-16T00:16:52;8.18;;;3.35;;
75297;SDS011;63896;45.990;18.688;2024-01-16T00:19:54;9.43;;;3.38;;
75297;SDS011;63896;45.990;18.688;2024-01-16T00:22:57;8.50;;;4.45;;
75297;SDS011;63896;45.990;18.688;2024-01-16T00:26:00;9.57;;;4.23;;
75297;SDS011;63896;45.990;18.688;2024-01-16T00:29:03;9.63;;;4.33;;
75297;SDS011;63896;45.990;18.688;2024-01-16T00:32:06;8.77;;;4.00;;
75297;SDS011;63896;45.990;18.688;2024-01-16T00:35:08;9.27;;;3.60;;
75297;SDS011;63896;45.990;18.688;2024-01-16T00:38:11;9.85;;;4.05;;
75297;SDS011;63896;45.990;18.688;2024-01-16T00:41:14;10.53;;;4.33;;
75297;SDS011;63896;45.990;18.688;2024-01-16T00:44:17;8.43;;;3.80;;
75297;SDS011;63896;45.990;18.688;2024-01-16T00:47:20;7.65;;;3.65;;
75297;SDS011;63896;45.990;18.688;2024-01-16T00:50:23;7.93;;;4.40;;
75297;SDS011;63896;45.990;18.688;2024-01-16T00:53:27;8.00;;;3.72;;
75297;SDS011;63896;45.990;18.688;2024-01-16T00:56:30;8.90;;;4.27;;
75297;SDS011;63896;45.990;18.688;2024-01-16T00:59:34;10.87;;;4.50;;
75297;SDS011;63896;45.990;18.688;2024-01-16T01:02:37;9.20;;;3.90;;
75297;SDS011;63896;45.990;18.688;2024-01-16T01:05:40;9.30;;;3.88;;
75297;SDS011;63896;45.990;18.688;2024-01-16T01:08:43;9.45;;;4.60;;
75297;SDS011;63896;45.990;18.688;2024-01-16T01:11:46;9.37;;;3.93;;
75297;SDS011;63896;45.990;18.688;2024-01-16T01:14:49;10.80;;;4.07;;
75297;SDS011;63896;45.990;18.688;2024-01-16T01:17:52;8.00;;;3.67;;
75297;SDS011;63896;45.990;18.688;2024-01-16T01:20:57;10.88;;;4.47;;
75297;SDS011;63896;45.990;18.688;2024-01-16T01:23:59;8.68;;;3.88;;
75297;SDS011;63896;45.990;18.688;2024-01-16T01:27:02;11.83;;;4.70;;
75297;SDS011;63896;45.990;18.688;2024-01-16T01:30:07;11.87;;;4.17;;
75297;SDS011;63896;45.990;18.688;2024-01-16T01:33:13;9.45;;;4.28;;
75297;SDS011;63896;45.990;18.688;2024-01-16T01:36:16;10.35;;;4.28;;
75297;SDS011;63896;45.990;18.688;2024-01-16T01:39:19;15.18;;;5.00;;
75297;SDS011;63896;45.990;18.688;2024-01-16T01:42:22;12.53;;;4.17;;
75297;SDS011;63896;45.990;18.688;2024-01-16T01:45:25;8.63;;;3.87;;
75297;SDS011;63896;45.990;18.688;2024-01-16T01:48:33;7.32;;;3.90;;
75297;SDS011;63896;45.990;18.688;2024-01-16T01:51:37;11.40;;;3.78;;
75297;SDS011;63896;45.990;18.688;2024-01-16T01:54:39;10.50;;;4.20;;
75297;SDS011;63896;45.990;18.688;2024-01-16T01:57:43;11.23;;;4.03;;
75297;SDS011;63896;45.990;18.688;2024-01-16T02:00:46;10.87;;;4.13;;
75297;SDS011;63896;45.990;18.688;2024-01-16T02:03:49;8.95;;;3.75;;
75297;SDS011;63896;45.990;18.688;2024-01-16T02:06:53;10.38;;;4.30;;
75297;SDS011;63896;45.990;18.688;2024-01-16T02:09:59;8.85;;;3.85;;
75297;SDS011;63896;45.990;18.688;2024-01-16T02:13:02;11.20;;;4.67;;
75297;SDS011;63896;45.990;18.688;2024-01-16T02:16:06;10.83;;;4.03;;
75297;SDS011;63896;45.990;18.688;2024-01-16T02:19:28;10.75;;;3.83;;
75297;SDS011;63896;45.990;18.688;2024-01-16T02:22:31;8.93;;;3.95;;
75297;SDS011;63896;45.990;18.688;2024-01-16T02:25:35;8.77;;;3.58;;
75297;SDS011;63896;45.990;18.688;2024-01-16T02:28:38;9.27;;;3.80;;
75297;SDS011;63896;45.990;18.688;2024-01-16T02:31:41;9.93;;;3.90;;
75297;SDS011;63896;45.990;18.688;2024-01-16T02:34:44;7.85;;;3.70;;
75297;SDS011;63896;45.990;18.688;2024-01-16T02:37:47;8.88;;;4.20;;
75297;SDS011;63896;45.990;18.688;2024-01-16T02:40:50;12.95;;;5.13;;
75297;SDS011;63896;45.990;18.688;2024-01-16T02:43:53;7.83;;;4.37;;
75297;SDS011;63896;45.990;18.688;2024-01-16T02:46:56;12.73;;;4.87;;
75297;SDS011;63896;45.990;18.688;2024-01-16T02:49:59;10.43;;;4.43;;
75297;SDS011;63896;45.990;18.688;2024-01-16T02:53:02;10.73;;;4.40;;
75297;SDS011;63896;45.990;18.688;2024-01-16T02:56:05;8.45;;;3.40;;
75297;SDS011;63896;45.990;18.688;2024-01-16T02:59:10;10.40;;;4.37;;
75297;SDS011;63896;45.990;18.688;2024-01-16T03:02:13;9.07;;;4.50;;
75297;SDS011;63896;45.990;18.688;2024-01-16T03:05:16;9.70;;;4.07;;
75297;SDS011;63896;45.990;18.688;2024-01-16T03:08:19;10.55;;;4.60;;
75297;SDS011;63896;45.990;18.688;2024-01-16T03:11:22;12.40;;;4.63;;
75297;SDS011;63896;45.990;18.688;2024-01-16T03:14:25;10.27;;;4.60;;
75297;SDS011;63896;45.990;18.688;2024-01-16T03:17:27;9.90;;;4.07;;
75297;SDS011;63896;45.990;18.688;2024-01-16T03:20:30;11.60;;;4.20;;
75297;SDS011;63896;45.990;18.688;2024-01-16T03:23:33;8.88;;;4.00;;
75297;SDS011;63896;45.990;18.688;2024-01-16T03:26:36;8.50;;;3.47;;
75297;SDS011;63896;45.990;18.688;2024-01-16T03:29:43;10.57;;;3.67;;
75297;SDS011;63896;45.990;18.688;2024-01-16T03:32:45;10.23;;;3.90;;
75297;SDS011;63896;45.990;18.688;2024-01-16T03:35:48;10.93;;;4.60;;
75297;SDS011;63896;45.990;18.688;2024-01-16T03:38:51;12.23;;;4.45;;
75297;SDS011;63896;45.990;18.688;2024-01-16T03:41:54;10.40;;;4.05;;
75297;SDS011;63896;45.990;18.688;2024-01-16T03:44:57;8.90;;;4.20;;
75297;SDS011;63896;45.990;18.688;2024-01-16T03:48:00;7.17;;;4.10;;
75297;SDS011;63896;45.990;18.688;2024-01-16T03:51:09;10.98;;;4.70;;
75297;SDS011;63896;45.990;18.688;2024-01-16T03:54:12;20.27;;;7.88;;
75297;SDS011;63896;45.990;18.688;2024-01-16T03:57:15;16.95;;;6.90;;
75297;SDS011;63896;45.990;18.688;2024-01-16T04:00:19;19.73;;;6.33;;
75297;SDS011;63896;45.990;18.688;2024-01-16T04:03:22;15.03;;;5.97;;
75297;SDS011;63896;45.990;18.688;2024-01-16T04:06:24;12.07;;;4.93;;
75297;SDS011;63896;45.990;18.688;2024-01-16T04:09:29;13.43;;;5.50;;
75297;SDS011;63896;45.990;18.688;2024-01-16T04:12:32;12.27;;;4.40;;
75297;SDS011;63896;45.990;18.688;2024-01-16T04:15:37;11.50;;;4.00;;
75297;SDS011;63896;45.990;18.688;2024-01-16T04:18:42;10.73;;;4.57;;
75297;SDS011;63896;45.990;18.688;2024-01-16T04:21:46;12.60;;;5.00;;
75297;SDS011;63896;45.990;18.688;2024-01-16T04:24:49;11.43;;;4.53;;
75297;SDS011;63896;45.990;18.688;2024-01-16T04:27:51;11.48;;;5.03;;
75297;SDS011;63896;45.990;18.688;2024-01-16T04:30:56;11.13;;;4.90;;
75297;SDS011;63896;45.990;18.688;2024-01-16T04:34:00;10.43;;;4.13;;
75297;SDS011;63896;45.990;18.688;2024-01-16T04:37:03;9.85;;;4.70;;
75297;SDS011;63896;45.990;18.688;2024-01-16T04:40:06;11.80;;;3.92;;
75297;SDS011;63896;45.990;18.688;2024-01-16T04:43:09;10.25;;;4.00;;
75297;SDS011;63896;45.990;18.688;2024-01-16T04:46:13;9.37;;;3.17;;
75297;SDS011;63896;45.990;18.688;2024-01-16T04:49:17;11.60;;;4.60;;
75297;SDS011;63896;45.990;18.688;2024-01-16T04:52:20;7.72;;;2.90;;
75297;SDS011;63896;45.990;18.688;2024-01-16T04:55:23;12.70;;;4.28;;
75297;SDS011;63896;45.990;18.688;2024-01-16T04:58:26;12.68;;;5.15;;
75297;SDS011;63896;45.990;18.688;2024-01-16T05:01:29;13.27;;;5.73;;
75297;SDS011;63896;45.990;18.688;2024-01-16T05:04:32;12.30;;;4.93;;
75297;SDS011;63896;45.990;18.688;2024-01-16T05:07:34;13.65;;;5.40;;
75297;SDS011;63896;45.990;18.688;2024-01-16T05:10:41;11.63;;;5.30;;
75297;SDS011;63896;45.990;18.688;2024-01-16T05:13:46;13.27;;;4.68;;
75297;SDS011;63896;45.990;18.688;2024-01-16T05:16:49;11.43;;;5.20;;
75297;SDS011;63896;45.990;18.688;2024-01-16T05:19:52;21.67;;;5.93;;
75297;SDS011;63896;45.990;18.688;2024-01-16T05:22:55;16.95;;;6.88;;
75297;SDS011;63896;45.990;18.688;2024-01-16T05:25:58;62.03;;;19.35;;
75297;SDS011;63896;45.990;18.688;2024-01-16T05:29:01;60.17;;;16.77;;
75297;SDS011;63896;45.990;18.688;2024-01-16T05:32:04;29.63;;;10.50;;
75297;SDS011;63896;45.990;18.688;2024-01-16T05:35:07;49.53;;;13.10;;
75297;SDS011;63896;45.990;18.688;2024-01-16T05:38:12;32.90;;;11.05;;
75297;SDS011;63896;45.990;18.688;2024-01-16T05:41:15;22.90;;;8.88;;
75297;SDS011;63896;45.990;18.688;2024-01-16T05:44:18;17.40;;;6.63;;
75297;SDS011;63896;45.990;18.688;2024-01-16T05:47:21;17.47;;;5.73;;
75297;SDS011;63896;45.990;18.688;2024-01-16T05:50:26;17.57;;;5.03;;
75297;SDS011;63896;45.990;18.688;2024-01-16T05:53:29;15.10;;;5.20;;
75297;SDS011;63896;45.990;18.688;2024-01-16T05:56:33;7.93;;;3.10;;
75297;SDS011;63896;45.990;18.688;2024-01-16T05:59:36;7.72;;;3.58;;
75297;SDS011;63896;45.990;18.688;2024-01-16T06:02:39;11.80;;;4.50;;
75297;SDS011;63896;45.990;18.688;2024-01-16T06:05:42;16.83;;;5.37;;
75297;SDS011;63896;45.990;18.688;2024-01-16T06:08:45;19.00;;;5.90;;
75297;SDS011;63896;45.990;18.688;2024-01-16T06:11:48;14.25;;;5.93;;
75297;SDS011;63896;45.990;18.688;2024-01-16T06:14:51;16.88;;;6.63;;
75297;SDS011;63896;45.990;18.688;2024-01-16T06:17:54;16.20;;;6.03;;
75297;SDS011;63896;45.990;18.688;2024-01-16T06:20:57;20.60;;;6.40;;
75297;SDS011;63896;45.990;18.688;2024-01-16T06:24:00;11.43;;;3.70;;
75297;SDS011;63896;45.990;18.688;2024-01-16T06:27:06;19.23;;;5.88;;
75297;SDS011;63896;45.990;18.688;2024-01-16T06:30:09;13.75;;;4.60;;
75297;SDS011;63896;45.990;18.688;2024-01-16T06:33:13;12.43;;;5.43;;
75297;SDS011;63896;45.990;18.688;2024-01-16T06:36:15;9.43;;;4.27;;
75297;SDS011;63896;45.990;18.688;2024-01-16T06:39:18;26.30;;;5.22;;
75297;SDS011;63896;45.990;18.688;2024-01-16T06:42:21;12.70;;;4.00;;
75297;SDS011;63896;45.990;18.688;2024-01-16T06:45:24;20.95;;;5.90;;
75297;SDS011;63896;45.990;18.688;2024-01-16T06:48:28;15.07;;;5.83;;
75297;SDS011;63896;45.990;18.688;2024-01-16T06:51:32;17.43;;;6.63;;
75297;SDS011;63896;45.990;18.688;2024-01-16T06:54:34;15.90;;;5.82;;
75297;SDS011;63896;45.990;18.688;2024-01-16T06:57:37;8.35;;;3.58;;
75297;SDS011;63896;45.990;18.688;2024-01-16T07:00:40;19.83;;;6.80;;
75297;SDS011;63896;45.990;18.688;2024-01-16T07:03:44;17.70;;;6.60;;
75297;SDS011;63896;45.990;18.688;2024-01-16T07:06:47;14.60;;;5.10;;
75297;SDS011;63896;45.990;18.688;2024-01-16T07:09:50;16.77;;;6.43;;
75297;SDS011;63896;45.990;18.688;2024-01-16T07:12:53;16.63;;;6.75;;
75297;SDS011;63896;45.990;18.688;2024-01-16T07:15:57;10.15;;;4.50;;
75297;SDS011;63896;45.990;18.688;2024-01-16T07:19:01;12.43;;;4.50;;
75297;SDS011;63896;45.990;18.688;2024-01-16T07:22:04;16.77;;;5.60;;
75297;SDS011;63896;45.990;18.688;2024-01-16T07:25:07;9.70;;;4.38;;
75297;SDS011;63896;45.990;18.688;2024-01-16T07:28:10;8.45;;;3.80;;
75297;SDS011;63896;45.990;18.688;2024-01-16T07:31:13;29.38;;;3.50;;
75297;SDS011;63896;45.990;18.688;2024-01-16T07:34:19;14.33;;;4.40;;
75297;SDS011;63896;45.990;18.688;2024-01-16T07:37:24;13.57;;;4.57;;
75297;SDS011;63896;45.990;18.688;2024-01-16T07:40:27;13.15;;;4.38;;
75297;SDS011;63896;45.990;18.688;2024-01-16T07:43:30;11.88;;;4.55;;
75297;SDS011;63896;45.990;18.688;2024-01-16T07:46:33;13.20;;;4.93;;
75297;SDS011;63896;45.990;18.688;2024-01-16T07:49:36;16.90;;;4.70;;
75297;SDS011;63896;45.990;18.688;2024-01-16T07:52:39;7.57;;;3.83;;
75297;SDS011;63896;45.990;18.688;2024-01-16T07:55:43;9.43;;;3.22;;
75297;SDS011;63896;45.990;18.688;2024-01-16T07:58:46;7.88;;;3.20;;
75297;SDS011;63896;45.990;18.688;2024-01-16T08:01:49;7.45;;;2.80;;
75297;SDS011;63896;45.990;18.688;2024-01-16T08:04:52;9.37;;;3.70;;
75297;SDS011;63896;45.990;18.688;2024-01-16T08:07:54;8.17;;;3.13;;
75297;SDS011;63896;45.990;18.688;2024-01-16T08:10:57;13.90;;;5.05;;
75297;SDS011;63896;45.990;18.688;2024-01-16T08:14:00;12.15;;;3.92;;
75297;SDS011;63896;45.990;18.688;2024-01-16T08:17:03;12.50;;;5.10;;
75297;SDS011;63896;45.990;18.688;2024-01-16T08:20:13;9.13;;;3.90;;
75297;SDS011;63896;45.990;18.688;2024-01-16T08:23:16;13.23;;;3.80;;
75297;SDS011;63896;45.990;18.688;2024-01-16T08:26:19;17.15;;;6.57;;
75297;SDS011;63896;45.990;18.688;2024-01-16T08:29:22;10.23;;;4.55;;
75297;SDS011;63896;45.990;18.688;2024-01-16T08:32:25;15.70;;;5.93;;
75297;SDS011;63896;45.990;18.688;2024-01-16T08:35:28;17.77;;;6.23;;
75297;SDS011;63896;45.990;18.688;2024-01-16T08:43:18;15.70;;;6.20;;
75297;SDS011;63896;45.990;18.688;2024-01-16T08:46:20;11.32;;;4.45;;
75297;SDS011;63896;45.990;18.688;2024-01-16T08:49:23;13.55;;;5.55;;
75297;SDS011;63896;45.990;18.688;2024-01-16T08:52:26;8.27;;;3.70;;
75297;SDS011;63896;45.990;18.688;2024-01-16T08:55:29;13.83;;;5.90;;
75297;SDS011;63896;45.990;18.688;2024-01-16T08:58:36;15.05;;;6.10;;
75297;SDS011;63896;45.990;18.688;2024-01-16T09:01:40;11.82;;;4.78;;
75297;SDS011;63896;45.990;18.688;2024-01-16T09:04:44;14.15;;;5.88;;
75297;SDS011;63896;45.990;18.688;2024-01-16T09:07:48;20.10;;;7.60;;
75297;SDS011;63896;45.990;18.688;2024-01-16T09:10:51;15.83;;;6.70;;
75297;SDS011;63896;45.990;18.688;2024-01-16T09:13:53;17.02;;;6.78;;
75297;SDS011;63896;45.990;18.688;2024-01-16T09:16:56;20.00;;;8.13;;
75297;SDS011;63896;45.990;18.688;2024-01-16T09:19:59;10.93;;;5.60;;
75297;SDS011;63896;45.990;18.688;2024-01-16T09:23:04;17.63;;;8.07;;
75297;SDS011;63896;45.990;18.688;2024-01-16T09:27:01;15.20;;;6.83;;
75297;SDS011;63896;45.990;18.688;2024-01-16T09:30:08;21.83;;;8.98;;
75297;SDS011;63896;45.990;18.688;2024-01-16T09:33:11;20.40;;;8.40;;
75297;SDS011;63896;45.990;18.688;2024-01-16T09:36:16;14.13;;;7.05;;
75297;SDS011;63896;45.990;18.688;2024-01-16T09:39:19;17.00;;;6.93;;
75297;SDS011;63896;45.990;18.688;2024-01-16T09:42:21;17.93;;;7.70;;
75297;SDS011;63896;45.990;18.688;2024-01-16T09:45:25;18.67;;;8.07;;
75297;SDS011;63896;45.990;18.688;2024-01-16T09:48:32;19.17;;;7.78;;
75297;SDS011;63896;45.990;18.688;2024-01-16T09:51:36;20.80;;;8.35;;
75297;SDS011;63896;45.990;18.688;2024-01-16T09:54:44;15.60;;;6.53;;
75297;SDS011;63896;45.990;18.688;2024-01-16T09:57:52;25.07;;;10.33;;
75297;SDS011;63896;45.990;18.688;2024-01-16T10:01:00;21.27;;;9.32;;
75297;SDS011;63896;45.990;18.688;2024-01-16T10:04:03;19.48;;;8.77;;
75297;SDS011;63896;45.990;18.688;2024-01-16T10:07:06;16.30;;;7.70;;
75297;SDS011;63896;45.990;18.688;2024-01-16T10:10:16;19.67;;;8.33;;
75297;SDS011;63896;45.990;18.688;2024-01-16T10:13:51;20.23;;;7.27;;
75297;SDS011;63896;45.990;18.688;2024-01-16T10:17:01;15.50;;;6.97;;
75297;SDS011;63896;45.990;18.688;2024-01-16T10:20:31;18.45;;;6.47;;
75297;SDS011;63896;45.990;18.688;2024-01-16T10:23:35;21.52;;;8.85;;
75297;SDS011;63896;45.990;18.688;2024-01-16T10:26:40;11.87;;;5.43;;
75297;SDS011;63896;45.990;18.688;2024-01-16T10:29:55;11.87;;;4.87;;
75297;SDS011;63896;45.990;18.688;2024-01-16T10:33:12;10.70;;;5.15;;
75297;SDS011;63896;45.990;18.688;2024-01-16T10:36:20;14.20;;;6.38;;
75297;SDS011;63896;45.990;18.688;2024-01-16T10:39:23;18.65;;;6.18;;
75297;SDS011;63896;45.990;18.688;2024-01-16T10:42:39;13.87;;;5.47;;
75297;SDS011;63896;45.990;18.688;2024-01-16T10:45:42;18.50;;;7.70;;
75297;SDS011;63896;45.990;18.688;2024-01-16T10:48:57;17.20;;;7.05;;
75297;SDS011;63896;45.990;18.688;2024-01-16T10:52:06;12.77;;;6.40;;
75297;SDS011;63896;45.990;18.688;2024-01-16T10:55:19;14.52;;;6.07;;
75297;SDS011;63896;45.990;18.688;2024-01-16T10:58:24;14.30;;;6.47;;
75297;SDS011;63896;45.990;18.688;2024-01-16T11:01:32;10.30;;;3.73;;
75297;SDS011;63896;45.990;18.688;2024-01-16T11:04:36;11.68;;;5.85;;
75297;SDS011;63896;45.990;18.688;2024-01-16T11:07:45;18.08;;;7.55;;
75297;SDS011;63896;45.990;18.688;2024-01-16T11:10:49;14.65;;;6.70;;
75297;SDS011;63896;45.990;18.688;2024-01-16T11:13:53;10.20;;;5.03;;
75297;SDS011;63896;45.990;18.688;2024-01-16T11:16:58;12.93;;;6.67;;
75297;SDS011;63896;45.990;18.688;2024-01-16T11:20:04;18.13;;;7.47;;
75297;SDS011;63896;45.990;18.688;2024-01-16T11:23:32;17.05;;;7.78;;
75297;SDS011;63896;45.990;18.688;2024-01-16T11:26:39;19.27;;;8.65;;
75297;SDS011;63896;45.990;18.688;2024-01-16T11:29:42;27.80;;;10.50;;
75297;SDS011;63896;45.990;18.688;2024-01-16T11:32:45;17.63;;;8.33;;
75297;SDS011;63896;45.990;18.688;2024-01-16T11:35:48;16.38;;;6.80;;
75297;SDS011;63896;45.990;18.688;2024-01-16T11:38:55;18.40;;;7.25;;
75297;SDS011;63896;45.990;18.688;2024-01-16T11:42:00;18.08;;;7.85;;
75297;SDS011;63896;45.990;18.688;2024-01-16T11:45:06;18.53;;;7.90;;
75297;SDS011;63896;45.990;18.688;2024-01-16T11:48:13;15.33;;;6.23;;
75297;SDS011;63896;45.990;18.688;2024-01-16T11:51:24;16.88;;;7.18;;
75297;SDS011;63896;45.990;18.688;2024-01-16T11:54:27;17.52;;;8.23;;
75297;SDS011;63896;45.990;18.688;2024-01-16T12:01:07;17.87;;;7.57;;
75297;SDS011;63896;45.990;18.688;2024-01-16T12:04:11;19.40;;;6.80;;
75297;SDS011;63896;45.990;18.688;2024-01-16T12:07:13;22.00;;;8.65;;
75297;SDS011;63896;45.990;18.688;2024-01-16T12:10:17;22.83;;;7.55;;
75297;SDS011;63896;45.990;18.688;2024-01-16T12:13:23;19.27;;;6.70;;
75297;SDS011;63896;45.990;18.688;2024-01-16T12:16:27;21.30;;;8.30;;
75297;SDS011;63896;45.990;18.688;2024-01-16T12:19:38;16.53;;;7.53;;
75297;SDS011;63896;45.990;18.688;2024-01-16T12:22:54;15.43;;;6.15;;
75297;SDS011;63896;45.990;18.688;2024-01-16T12:25:57;17.80;;;7.60;;
75297;SDS011;63896;45.990;18.688;2024-01-16T12:29:06;11.98;;;5.43;;
75297;SDS011;63896;45.990;18.688;2024-01-16T12:32:11;19.00;;;6.53;;
75297;SDS011;63896;45.990;18.688;2024-01-16T12:35:20;18.50;;;6.40;;
75297;SDS011;63896;45.990;18.688;2024-01-16T12:38:25;18.90;;;7.57;;
75297;SDS011;63896;45.990;18.688;2024-01-16T12:41:30;16.20;;;6.90;;
75297;SDS011;63896;45.990;18.688;2024-01-16T12:44:57;34.53;;;13.95;;
75297;SDS011;63896;45.990;18.688;2024-01-16T12:48:02;18.40;;;7.93;;
75297;SDS011;63896;45.990;18.688;2024-01-16T12:51:07;21.07;;;7.60;;
75297;SDS011;63896;45.990;18.688;2024-01-16T12:54:15;22.92;;;7.97;;
75297;SDS011;63896;45.990;18.688;2024-01-16T12:57:21;33.55;;;9.48;;
75297;SDS011;63896;45.990;18.688;2024-01-16T13:00:23;34.97;;;10.85;;
75297;SDS011;63896;45.990;18.688;2024-01-16T13:03:29;17.57;;;6.80;;
75297;SDS011;63896;45.990;18.688;2024-01-16T13:06:44;34.77;;;9.43;;
75297;SDS011;63896;45.990;18.688;2024-01-16T13:09:49;16.92;;;5.72;;
75297;SDS011;63896;45.990;18.688;2024-01-16T13:12:51;24.30;;;7.68;;
75297;SDS011;63896;45.990;18.688;2024-01-16T13:15:55;43.17;;;11.88;;
75297;SDS011;63896;45.990;18.688;2024-01-16T13:19:00;31.30;;;9.60;;
75297;SDS011;63896;45.990;18.688;2024-01-16T13:22:15;25.57;;;7.70;;
75297;SDS011;63896;45.990;18.688;2024-01-16T13:25:18;29.42;;;8.43;;
75297;SDS011;63896;45.990;18.688;2024-01-16T13:29:01;30.63;;;8.48;;
75297;SDS011;63896;45.990;18.688;2024-01-16T13:32:06;40.85;;;10.80;;
75297;SDS011;63896;45.990;18.688;2024-01-16T13:35:12;25.93;;;7.97;;
75297;SDS011;63896;45.990;18.688;2024-01-16T13:38:15;17.43;;;6.67;;
75297;SDS011;63896;45.990;18.688;2024-01-16T13:41:19;17.60;;;5.78;;
75297;SDS011;63896;45.990;18.688;2024-01-16T13:44:22;36.38;;;8.45;;
75297;SDS011;63896;45.990;18.688;2024-01-16T13:47:25;23.25;;;7.40;;
75297;SDS011;63896;45.990;18.688;2024-01-16T13:50:28;25.27;;;6.63;;
75297;SDS011;63896;45.990;18.688;2024-01-16T13:53:32;21.60;;;7.40;;
75297;SDS011;63896;45.990;18.688;2024-01-16T13:56:35;28.92;;;9.65;;
75297;SDS011;63896;45.990;18.688;2024-01-16T13:59:58;25.73;;;10.90;;
75297;SDS011;63896;45.990;18.688;2024-01-16T14:03:12;19.08;;;6.63;;
75297;SDS011;63896;45.990;18.688;2024-01-16T14:06:38;35.67;;;8.80;;
75297;SDS011;63896;45.990;18.688;2024-01-16T14:10:00;44.00;;;12.23;;
75297;SDS011;63896;45.990;18.688;2024-01-16T14:13:09;49.47;;;11.35;;
75297;SDS011;63896;45.990;18.688;2024-01-16T14:16:11;43.25;;;11.40;;
75297;SDS011;63896;45.990;18.688;2024-01-16T14:19:15;35.42;;;11.32;;
75297;SDS011;63896;45.990;18.688;2024-01-16T14:22:19;39.87;;;12.67;;
75297;SDS011;63896;45.990;18.688;2024-01-16T14:25:22;51.23;;;12.67;;
75297;SDS011;63896;45.990;18.688;2024-01-16T14:28:26;26.08;;;10.90;;
75297;SDS011;63896;45.990;18.688;2024-01-16T14:31:35;26.63;;;8.50;;
75297;SDS011;63896;45.990;18.688;2024-01-16T14:34:39;41.75;;;9.55;;
75297;SDS011;63896;45.990;18.688;2024-01-16T14:37:42;49.37;;;10.53;;
75297;SDS011;63896;45.990;18.688;2024-01-16T14:40:47;37.93;;;10.97;;
75297;SDS011;63896;45.990;18.688;2024-01-16T14:43:50;38.22;;;11.05;;
75297;SDS011;63896;45.990;18.688;2024-01-16T14:46:53;44.10;;;12.07;;
75297;SDS011;63896;45.990;18.688;2024-01-16T14:49:56;42.17;;;12.63;;
75297;SDS011;63896;45.990;18.688;2024-01-16T14:53:00;51.67;;;17.00;;
75297;SDS011;63896;45.990;18.688;2024-01-16T14:56:05;20.43;;;7.83;;
75297;SDS011;63896;45.990;18.688;2024-01-16T14:59:08;27.13;;;8.88;;
75297;SDS011;63896;45.990;18.688;2024-01-16T15:02:16;23.17;;;8.80;;
75297;SDS011;63896;45.990;18.688;2024-01-16T15:05:40;26.83;;;9.90;;
75297;SDS011;63896;45.990;18.688;2024-01-16T15:08:43;26.27;;;9.93;;
75297;SDS011;63896;45.990;18.688;2024-01-16T15:11:46;26.23;;;7.90;;
75297;SDS011;63896;45.990;18.688;2024-01-16T15:14:50;36.65;;;10.65;;
75297;SDS011;63896;45.990;18.688;2024-01-16T15:17:56;28.70;;;10.55;;
75297;SDS011;63896;45.990;18.688;2024-01-16T15:20:59;39.50;;;13.55;;
75297;SDS011;63896;45.990;18.688;2024-01-16T15:24:02;38.70;;;10.43;;
75297;SDS011;63896;45.990;18.688;2024-01-16T15:27:08;39.83;;;10.17;;
75297;SDS011;63896;45.990;18.688;2024-01-16T15:30:11;44.55;;;12.13;;
75297;SDS011;63896;45.990;18.688;2024-01-16T15:33:16;35.05;;;11.65;;
75297;SDS011;63896;45.990;18.688;2024-01-16T15:36:19;67.90;;;16.15;;
75297;SDS011;63896;45.990;18.688;2024-01-16T15:39:22;45.70;;;13.83;;
75297;SDS011;63896;45.990;18.688;2024-01-16T15:42:26;41.70;;;14.53;;
75297;SDS011;63896;45.990;18.688;2024-01-16T15:45:29;52.38;;;15.75;;
75297;SDS011;63896;45.990;18.688;2024-01-16T15:48:32;59.63;;;16.35;;
75297;SDS011;63896;45.990;18.688;2024-01-16T15:51:37;69.28;;;20.73;;
75297;SDS011;63896;45.990;18.688;2024-01-16T15:54:39;62.97;;;19.80;;
75297;SDS011;63896;45.990;18.688;2024-01-16T15:57:42;84.27;;;23.37;;
75297;SDS011;63896;45.990;18.688;2024-01-16T16:00:46;67.18;;;20.67;;
75297;SDS011;63896;45.990;18.688;2024-01-16T16:03:49;64.95;;;20.50;;
75297;SDS011;63896;45.990;18.688;2024-01-16T16:06:53;55.05;;;17.38;;
75297;SDS011;63896;45.990;18.688;2024-01-16T16:09:55;54.50;;;15.43;;
75297;SDS011;63896;45.990;18.688;2024-01-16T16:12:58;54.07;;;14.10;;
75297;SDS011;63896;45.990;18.688;2024-01-16T16:16:01;51.90;;;13.05;;
75297;SDS011;63896;45.990;18.688;2024-01-16T16:19:04;36.22;;;11.60;;
75297;SDS011;63896;45.990;18.688;2024-01-16T16:22:07;28.95;;;8.85;;
75297;SDS011;63896;45.990;18.688;2024-01-16T16:25:10;35.80;;;10.97;;
75297;SDS011;63896;45.990;18.688;2024-01-16T16:28:13;16.83;;;5.30;;
75297;SDS011;63896;45.990;18.688;2024-01-16T16:31:16;19.88;;;5.93;;
75297;SDS011;63896;45.990;18.688;2024-01-16T16:34:18;24.50;;;6.78;;
75297;SDS011;63896;45.990;18.688;2024-01-16T16:37:21;28.17;;;5.93;;
75297;SDS011;63896;45.990;18.688;2024-01-16T16:40:25;22.23;;;7.37;;
75297;SDS011;63896;45.990;18.688;2024-01-16T16:43:28;35.40;;;9.17;;
75297;SDS011;63896;45.990;18.688;2024-01-16T16:46:32;43.90;;;12.00;;
75297;SDS011;63896;45.990;18.688;2024-01-16T16:49:34;46.63;;;13.60;;
75297;SDS011;63896;45.990;18.688;2024-01-16T16:52:37;28.73;;;8.25;;
75297;SDS011;63896;45.990;18.688;2024-01-16T16:55:40;31.73;;;9.30;;
75297;SDS011;63896;45.990;18.688;2024-01-16T16:58:44;20.20;;;8.37;;
75297;SDS011;63896;45.990;18.688;2024-01-16T17:01:48;24.95;;;8.60;;
75297;SDS011;63896;45.990;18.688;2024-01-16T17:04:53;27.83;;;10.13;;
75297;SDS011;63896;45.990;18.688;2024-01-16T17:07:56;24.40;;;9.50;;
75297;SDS011;63896;45.990;18.688;2024-01-16T17:10:59;28.47;;;8.93;;
75297;SDS011;63896;45.990;18.688;2024-01-16T17:14:02;28.37;;;8.17;;
75297;SDS011;63896;45.990;18.688;2024-01-16T17:17:06;27.48;;;8.65;;
75297;SDS011;63896;45.990;18.688;2024-01-16T17:20:14;29.48;;;10.25;;
75297;SDS011;63896;45.990;18.688;2024-01-16T17:23:20;36.67;;;11.90;;
75297;SDS011;63896;45.990;18.688;2024-01-16T17:26:23;35.37;;;11.07;;
75297;SDS011;63896;45.990;18.688;2024-01-16T17:29:27;52.73;;;15.23;;
75297;SDS011;63896;45.990;18.688;2024-01-16T17:32:30;43.92;;;13.70;;
75297;SDS011;63896;45.990;18.688;2024-01-16T17:35:34;45.13;;;15.50;;
75297;SDS011;63896;45.990;18.688;2024-01-16T17:38:37;55.50;;;17.27;;
75297;SDS011;63896;45.990;18.688;2024-01-16T17:41:40;63.03;;;20.47;;
75297;SDS011;63896;45.990;18.688;2024-01-16T17:44:47;43.47;;;15.37;;
75297;SDS011;63896;45.990;18.688;2024-01-16T17:47:50;48.17;;;14.27;;
75297;SDS011;63896;45.990;18.688;2024-01-16T17:50:54;43.97;;;15.10;;
75297;SDS011;63896;45.990;18.688;2024-01-16T17:53:58;24.23;;;9.95;;
75297;SDS011;63896;45.990;18.688;2024-01-16T17:57:04;38.03;;;12.80;;
75297;SDS011;63896;45.990;18.688;2024-01-16T18:00:07;18.27;;;8.47;;
75297;SDS011;63896;45.990;18.688;2024-01-16T18:03:11;31.88;;;10.48;;
75297;SDS011;63896;45.990;18.688;2024-01-16T18:06:34;32.60;;;9.60;;
75297;SDS011;63896;45.990;18.688;2024-01-16T18:09:40;33.38;;;11.60;;